sensor_id;sensor_type;location;lat;lon;timestamp;temperature;humidity
44731;DHT22;30458;47.448;19.032;2023-01-19T00:02:59;7.80;99.90
44731;DHT22;30458;47.448;19.032;2023-01-19T00:12:59;7.80;99.90
44731;DHT22;30458;47.448;19.032;2023-01-19T00:23:01;7.70;99.90
44731;DHT22;30458;47.448;19.032;2023-01-19T00:33:02;7.50;99.90
44731;DHT22;30458;47.448;19.032;2023-01-19T00:43:03;7.20;99.90
44731;DHT22;30458;47.448;19.032;2023-01-19T00:53:04;7.30;99.90
44731;DHT22;30458;47.448;19.032;2023-01-19T01:03:05;7.30;99.90
44731;DHT22;30458;47.448;19.032;2023-01-19T01:13:06;7.20;99.90
44731;DHT22;30458;47.448;19.032;2023-01-19T01:23:06;7.10;99.90
44731;DHT22;30458;47.448;19.032;2023-01-19T01:33:08;7.00;99.90
44731;DHT22;30458;47.448;19.032;2023-01-19T01:43:16;6.80;99.90
44731;DHT22;30458;47.448;19.032;2023-01-19T01:53:17;6.50;99.90
44731;DHT22;30458;47.448;19.032;2023-01-19T02:03:20;6.40;99.90
44731;DHT22;30458;47.448;19.032;2023-01-19T02:13:24;6.50;99.90
44731;DHT22;30458;47.448;19.032;2023-01-19T02:33:38;6.50;99.90
44731;DHT22;30458;47.448;19.032;2023-01-19T02:43:40;6.70;99.90
44731;DHT22;30458;47.448;19.032;2023-01-19T02:54:01;6.90;99.90
44731;DHT22;30458;47.448;19.032;2023-01-19T03:04:23;6.80;99.90
44731;DHT22;30458;47.448;19.032;2023-01-19T03:14:31;6.60;99.90
44731;DHT22;30458;47.448;19.032;2023-01-19T03:24:40;6.60;99.90
44731;DHT22;30458;47.448;19.032;2023-01-19T03:34:42;6.60;99.90
44731;DHT22;30458;47.448;19.032;2023-01-19T03:44:44;6.60;99.90
44731;DHT22;30458;47.448;19.032;2023-01-19T03:54:49;6.50;99.90
44731;DHT22;30458;47.448;19.032;2023-01-19T04:04:50;6.40;99.90
44731;DHT22;30458;47.448;19.032;2023-01-19T04:14:51;6.50;99.90
44731;DHT22;30458;47.448;19.032;2023-01-19T04:24:56;6.50;99.90
44731;DHT22;30458;47.448;19.032;2023-01-19T04:34:58;6.60;99.90
44731;DHT22;30458;47.448;19.032;2023-01-19T04:44:59;6.60;99.90
44731;DHT22;30458;47.448;19.032;2023-01-19T04:55:00;6.70;99.90
44731;DHT22;30458;47.448;19.032;2023-01-19T05:05:02;6.70;99.90
44731;DHT22;30458;47.448;19.032;2023-01-19T05:15:03;6.40;99.90
44731;DHT22;30458;47.448;19.032;2023-01-19T05:25:07;6.10;99.90
44731;DHT22;30458;47.448;19.032;2023-01-19T05:35:08;6.10;99.90
44731;DHT22;30458;47.448;19.032;2023-01-19T05:45:09;6.10;99.90
44731;DHT22;30458;47.448;19.032;2023-01-19T05:55:14;6.10;99.90
44731;DHT22;30458;47.448;19.032;2023-01-19T06:05:20;6.30;99.90
44731;DHT22;30458;47.448;19.032;2023-01-19T06:15:23;6.40;99.90
44731;DHT22;30458;47.448;19.032;2023-01-19T06:25:26;6.40;99.90
44731;DHT22;30458;47.448;19.032;2023-01-19T06:35:30;6.50;99.90
44731;DHT22;30458;47.448;19.032;2023-01-19T06:45:33;6.50;99.90
44731;DHT22;30458;47.448;19.032;2023-01-19T06:55:36;6.30;99.90
44731;DHT22;30458;47.448;19.032;2023-01-19T07:05:36;6.30;99.90
44731;DHT22;30458;47.448;19.032;2023-01-19T07:15:42;6.40;99.90
44731;DHT22;30458;47.448;19.032;2023-01-19T07:25:46;6.50;99.90
44731;DHT22;30458;47.448;19.032;2023-01-19T07:35:50;6.40;99.90
44731;DHT22;30458;47.448;19.032;2023-01-19T07:45:54;6.50;99.90
44731;DHT22;30458;47.448;19.032;2023-01-19T07:55:55;6.30;99.90
44731;DHT22;30458;47.448;19.032;2023-01-19T08:05:58;6.40;99.90
44731;DHT22;30458;47.448;19.032;2023-01-19T08:15:59;6.60;99.90
44731;DHT22;30458;47.448;19.032;2023-01-19T08:26:17;6.70;99.90
44731;DHT22;30458;47.448;19.032;2023-01-19T08:36:21;6.80;99.90
44731;DHT22;30458;47.448;19.032;2023-01-19T08:46:23;6.80;99.90
44731;DHT22;30458;47.448;19.032;2023-01-19T08:56:24;6.90;99.90
44731;DHT22;30458;47.448;19.032;2023-01-19T09:06:27;6.80;99.90
44731;DHT22;30458;47.448;19.032;2023-01-19T09:16:28;7.00;99.90
44731;DHT22;30458;47.448;19.032;2023-01-19T09:26:31;7.10;99.90
44731;DHT22;30458;47.448;19.032;2023-01-19T09:36:32;6.70;99.90
44731;DHT22;30458;47.448;19.032;2023-01-19T09:46:40;6.60;99.90
44731;DHT22;30458;47.448;19.032;2023-01-19T09:56:46;6.60;99.90
44731;DHT22;30458;47.448;19.032;2023-01-19T10:06:48;6.60;99.90
44731;DHT22;30458;47.448;19.032;2023-01-19T10:27:14;6.40;99.90
44731;DHT22;30458;47.448;19.032;2023-01-19T10:47:33;6.30;99.90
44731;DHT22;30458;47.448;19.032;2023-01-19T10:57:36;6.60;99.90
44731;DHT22;30458;47.448;19.032;2023-01-19T11:07:38;6.70;99.90
44731;DHT22;30458;47.448;19.032;2023-01-19T11:17:41;6.70;99.90
44731;DHT22;30458;47.448;19.032;2023-01-19T11:27:50;6.10;99.90
44731;DHT22;30458;47.448;19.032;2023-01-19T11:38:18;6.10;99.90
44731;DHT22;30458;47.448;19.032;2023-01-19T11:58:30;6.20;99.90
44731;DHT22;30458;47.448;19.032;2023-01-19T12:08:42;6.50;99.90
44731;DHT22;30458;47.448;19.032;2023-01-19T12:18:48;6.10;99.90
44731;DHT22;30458;47.448;19.032;2023-01-19T12:28:51;6.00;99.90
44731;DHT22;30458;47.448;19.032;2023-01-19T12:38:55;5.90;99.90
44731;DHT22;30458;47.448;19.032;2023-01-19T12:59:22;5.20;99.90
44731;DHT22;30458;47.448;19.032;2023-01-19T13:09:33;5.00;99.90
44731;DHT22;30458;47.448;19.032;2023-01-19T13:19:41;5.10;99.90
44731;DHT22;30458;47.448;19.032;2023-01-19T13:29:43;5.20;99.90
44731;DHT22;30458;47.448;19.032;2023-01-19T13:39:46;5.00;99.90
44731;DHT22;30458;47.448;19.032;2023-01-19T13:49:56;4.80;99.90
44731;DHT22;30458;47.448;19.032;2023-01-19T14:10:15;5.00;99.90
44731;DHT22;30458;47.448;19.032;2023-01-19T14:20:28;4.60;99.90
44731;DHT22;30458;47.448;19.032;2023-01-19T14:30:29;4.70;99.90
44731;DHT22;30458;47.448;19.032;2023-01-19T14:40:34;4.60;99.90
44731;DHT22;30458;47.448;19.032;2023-01-19T14:50:40;4.70;99.90
44731;DHT22;30458;47.448;19.032;2023-01-19T15:00:43;4.80;99.90
44731;DHT22;30458;47.448;19.032;2023-01-19T15:10:44;4.70;99.90
44731;DHT22;30458;47.448;19.032;2023-01-19T15:20:47;4.90;99.90
44731;DHT22;30458;47.448;19.032;2023-01-19T15:30:48;4.60;99.90
44731;DHT22;30458;47.448;19.032;2023-01-19T15:40:53;4.40;99.90
44731;DHT22;30458;47.448;19.032;2023-01-19T15:50:53;4.50;99.90
44731;DHT22;30458;47.448;19.032;2023-01-19T16:00:56;4.50;99.90
44731;DHT22;30458;47.448;19.032;2023-01-19T16:11:03;4.60;99.90
44731;DHT22;30458;47.448;19.032;2023-01-19T16:21:06;4.80;99.90
44731;DHT22;30458;47.448;19.032;2023-01-19T16:31:07;4.70;99.90
44731;DHT22;30458;47.448;19.032;2023-01-19T16:41:10;4.60;99.90
44731;DHT22;30458;47.448;19.032;2023-01-19T16:51:13;4.40;99.90
44731;DHT22;30458;47.448;19.032;2023-01-19T17:01:16;4.50;99.90
44731;DHT22;30458;47.448;19.032;2023-01-19T17:11:23;4.50;99.90
44731;DHT22;30458;47.448;19.032;2023-01-19T17:21:24;4.50;99.90
44731;DHT22;30458;47.448;19.032;2023-01-19T17:31:25;4.60;99.90
44731;DHT22;30458;47.448;19.032;2023-01-19T17:41:35;4.40;99.90
44731;DHT22;30458;47.448;19.032;2023-01-19T17:51:38;4.50;99.90
44731;DHT22;30458;47.448;19.032;2023-01-19T18:01:38;4.40;99.90
44731;DHT22;30458;47.448;19.032;2023-01-19T18:11:42;4.60;99.90
44731;DHT22;30458;47.448;19.032;2023-01-19T18:21:44;4.70;99.90
44731;DHT22;30458;47.448;19.032;2023-01-19T18:31:45;4.80;99.90
44731;DHT22;30458;47.448;19.032;2023-01-19T18:41:46;4.80;99.90
44731;DHT22;30458;47.448;19.032;2023-01-19T18:51:47;4.50;99.90
44731;DHT22;30458;47.448;19.032;2023-01-19T19:01:47;4.30;99.90
44731;DHT22;30458;47.448;19.032;2023-01-19T19:11:50;4.20;99.90
44731;DHT22;30458;47.448;19.032;2023-01-19T19:21:56;4.10;99.90
44731;DHT22;30458;47.448;19.032;2023-01-19T19:31:57;4.10;99.90
44731;DHT22;30458;47.448;19.032;2023-01-19T19:41:58;4.20;99.90
44731;DHT22;30458;47.448;19.032;2023-01-19T19:51:59;4.20;99.90
44731;DHT22;30458;47.448;19.032;2023-01-19T20:01:59;4.20;99.90
44731;DHT22;30458;47.448;19.032;2023-01-19T20:12:05;4.30;99.90
44731;DHT22;30458;47.448;19.032;2023-01-19T20:22:21;4.30;99.90
44731;DHT22;30458;47.448;19.032;2023-01-19T20:32:24;4.40;99.90
44731;DHT22;30458;47.448;19.032;2023-01-19T20:42:27;4.90;99.90
44731;DHT22;30458;47.448;19.032;2023-01-19T20:52:28;5.20;99.90
44731;DHT22;30458;47.448;19.032;2023-01-19T21:02:29;5.30;99.90
44731;DHT22;30458;47.448;19.032;2023-01-19T21:12:29;5.00;99.90
44731;DHT22;30458;47.448;19.032;2023-01-19T21:22:30;5.00;99.90
44731;DHT22;30458;47.448;19.032;2023-01-19T21:32:31;4.80;99.90
44731;DHT22;30458;47.448;19.032;2023-01-19T21:42:37;4.70;99.90
44731;DHT22;30458;47.448;19.032;2023-01-19T21:52:43;4.70;99.90
44731;DHT22;30458;47.448;19.032;2023-01-19T22:02:46;4.70;99.90
44731;DHT22;30458;47.448;19.032;2023-01-19T22:12:52;4.70;99.90
44731;DHT22;30458;47.448;19.032;2023-01-19T22:22:53;4.70;99.90
44731;DHT22;30458;47.448;19.032;2023-01-19T22:32:57;4.60;99.90
44731;DHT22;30458;47.448;19.032;2023-01-19T22:43:00;4.90;99.90
44731;DHT22;30458;47.448;19.032;2023-01-19T22:53:00;4.70;99.90
44731;DHT22;30458;47.448;19.032;2023-01-19T23:03:01;4.80;99.90
44731;DHT22;30458;47.448;19.032;2023-01-19T23:13:02;5.00;99.90
44731;DHT22;30458;47.448;19.032;2023-01-19T23:23:03;4.70;99.90
44731;DHT22;30458;47.448;19.032;2023-01-19T23:33:04;4.80;99.90
44731;DHT22;30458;47.448;19.032;2023-01-19T23:43:05;4.80;99.90
44731;DHT22;30458;47.448;19.032;2023-01-19T23:53:06;4.90;99.90
